Arcadia, Iowa
Current Conditions -  °F | °C
As of 6:15 AM on Friday 24 Oct 2014 (Local Time) from KCIN Reporting Station
Haze Haze  
Wind Chill: 55°   Ceiling: 4400
Heat Index: 55°   Visibility: 4mi
Dew Point: 55°   Wind: 9mph
Humidity: 100%   Direction: 200°SSW
Pressure: 29.93"   Gusts: NA
Location:  42.09°N, 95.05°W
Report Text: KCIN 241115Z AUTO 20008KT 4SM BR SCT004 SCT030 BKN044 13/13 A2993 RMK AO2
Loading
Personal Weather Stations






























Interactive Weather Map
Tropical Storm Tracking
New forecast layout! Learn more

10-Day Weather Forecast

Advertisements
Track Severe Weather on mobile